sensor_id;sensor_type;location;lat;lon;timestamp;temperature;humidity
13794;DHT22;31160;49.500;7.772;2022-10-16T00:01:09;14.50;99.90
13794;DHT22;31160;49.500;7.772;2022-10-16T00:03:38;14.50;99.90
13794;DHT22;31160;49.500;7.772;2022-10-16T00:06:06;14.50;99.90
13794;DHT22;31160;49.500;7.772;2022-10-16T00:08:33;14.60;99.90
13794;DHT22;31160;49.500;7.772;2022-10-16T00:11:12;14.60;99.90
13794;DHT22;31160;49.500;7.772;2022-10-16T00:13:40;14.60;99.90
13794;DHT22;31160;49.500;7.772;2022-10-16T00:16:08;14.60;99.90
13794;DHT22;31160;49.500;7.772;2022-10-16T00:18:36;14.70;99.90
13794;DHT22;31160;49.500;7.772;2022-10-16T00:21:24;14.60;99.90
13794;DHT22;31160;49.500;7.772;2022-10-16T00:23:56;14.70;99.90
13794;DHT22;31160;49.500;7.772;2022-10-16T00:26:26;14.60;99.90
13794;DHT22;31160;49.500;7.772;2022-10-16T00:28:53;14.70;99.90
13794;DHT22;31160;49.500;7.772;2022-10-16T00:31:21;14.70;99.90
13794;DHT22;31160;49.500;7.772;2022-10-16T00:33:49;14.70;99.90
13794;DHT22;31160;49.500;7.772;2022-10-16T00:36:19;14.70;99.90
13794;DHT22;31160;49.500;7.772;2022-10-16T00:38:46;14.70;99.90
13794;DHT22;31160;49.500;7.772;2022-10-16T00:41:16;14.60;99.90
13794;DHT22;31160;49.500;7.772;2022-10-16T00:43:46;14.70;99.90
13794;DHT22;31160;49.500;7.772;2022-10-16T00:46:17;14.70;99.90
13794;DHT22;31160;49.500;7.772;2022-10-16T00:49:00;14.70;99.90
13794;DHT22;31160;49.500;7.772;2022-10-16T00:51:34;14.70;99.90
13794;DHT22;31160;49.500;7.772;2022-10-16T00:54:04;14.70;99.90
13794;DHT22;31160;49.500;7.772;2022-10-16T00:56:32;14.70;99.90
13794;DHT22;31160;49.500;7.772;2022-10-16T00:59:03;14.70;99.90
13794;DHT22;31160;49.500;7.772;2022-10-16T01:01:31;14.70;99.90
13794;DHT22;31160;49.500;7.772;2022-10-16T01:03:58;14.70;99.90
13794;DHT22;31160;49.500;7.772;2022-10-16T01:06:37;14.70;99.90
13794;DHT22;31160;49.500;7.772;2022-10-16T01:09:23;14.90;99.90
13794;DHT22;31160;49.500;7.772;2022-10-16T01:12:09;14.80;99.90
13794;DHT22;31160;49.500;7.772;2022-10-16T01:14:45;14.80;99.90
13794;DHT22;31160;49.500;7.772;2022-10-16T01:17:28;14.70;99.90
13794;DHT22;31160;49.500;7.772;2022-10-16T01:20:23;14.70;99.90
13794;DHT22;31160;49.500;7.772;2022-10-16T01:31:24;14.90;99.90
13794;DHT22;31160;49.500;7.772;2022-10-16T01:34:16;14.80;99.90
13794;DHT22;31160;49.500;7.772;2022-10-16T01:36:51;14.80;99.90
13794;DHT22;31160;49.500;7.772;2022-10-16T01:39:22;14.80;99.90
13794;DHT22;31160;49.500;7.772;2022-10-16T01:42:03;14.80;99.90
13794;DHT22;31160;49.500;7.772;2022-10-16T01:44:32;14.90;99.90
13794;DHT22;31160;49.500;7.772;2022-10-16T01:47:00;14.80;99.90
13794;DHT22;31160;49.500;7.772;2022-10-16T01:49:31;14.80;99.90
13794;DHT22;31160;49.500;7.772;2022-10-16T01:52:02;14.70;99.90
13794;DHT22;31160;49.500;7.772;2022-10-16T01:54:30;14.80;99.90
13794;DHT22;31160;49.500;7.772;2022-10-16T01:56:59;14.80;99.90
13794;DHT22;31160;49.500;7.772;2022-10-16T01:59:28;14.80;99.90
13794;DHT22;31160;49.500;7.772;2022-10-16T02:01:59;14.80;99.90
13794;DHT22;31160;49.500;7.772;2022-10-16T02:04:34;14.80;99.90
13794;DHT22;31160;49.500;7.772;2022-10-16T02:07:02;14.80;99.90
13794;DHT22;31160;49.500;7.772;2022-10-16T02:09:30;14.80;99.90
13794;DHT22;31160;49.500;7.772;2022-10-16T02:12:03;14.80;99.90
13794;DHT22;31160;49.500;7.772;2022-10-16T02:14:32;14.80;99.90
13794;DHT22;31160;49.500;7.772;2022-10-16T02:16:59;14.80;99.90
13794;DHT22;31160;49.500;7.772;2022-10-16T02:19:26;14.80;99.90
13794;DHT22;31160;49.500;7.772;2022-10-16T02:22:04;14.80;99.90
13794;DHT22;31160;49.500;7.772;2022-10-16T02:24:39;14.70;99.90
13794;DHT22;31160;49.500;7.772;2022-10-16T02:30:14;14.80;99.90
13794;DHT22;31160;49.500;7.772;2022-10-16T02:32:46;14.80;99.90
13794;DHT22;31160;49.500;7.772;2022-10-16T02:35:17;14.70;99.90
13794;DHT22;31160;49.500;7.772;2022-10-16T02:37:46;14.80;99.90
13794;DHT22;31160;49.500;7.772;2022-10-16T02:40:13;14.90;99.90
13794;DHT22;31160;49.500;7.772;2022-10-16T02:42:41;14.90;99.90
13794;DHT22;31160;49.500;7.772;2022-10-16T02:45:09;15.00;99.90
13794;DHT22;31160;49.500;7.772;2022-10-16T02:47:37;15.00;99.90
13794;DHT22;31160;49.500;7.772;2022-10-16T02:50:04;14.90;99.90
13794;DHT22;31160;49.500;7.772;2022-10-16T02:52:31;14.90;99.90
13794;DHT22;31160;49.500;7.772;2022-10-16T02:54:58;14.90;99.90
13794;DHT22;31160;49.500;7.772;2022-10-16T02:57:24;14.90;99.90
13794;DHT22;31160;49.500;7.772;2022-10-16T02:59:51;14.90;99.90
13794;DHT22;31160;49.500;7.772;2022-10-16T03:02:18;14.90;99.90
13794;DHT22;31160;49.500;7.772;2022-10-16T03:04:45;14.90;99.90
13794;DHT22;31160;49.500;7.772;2022-10-16T03:07:12;14.90;99.90
13794;DHT22;31160;49.500;7.772;2022-10-16T03:09:38;14.90;99.90
13794;DHT22;31160;49.500;7.772;2022-10-16T03:12:05;14.90;99.90
13794;DHT22;31160;49.500;7.772;2022-10-16T03:14:32;14.90;99.90
13794;DHT22;31160;49.500;7.772;2022-10-16T03:16:59;15.00;99.90
13794;DHT22;31160;49.500;7.772;2022-10-16T03:19:25;15.00;99.90
13794;DHT22;31160;49.500;7.772;2022-10-16T03:21:52;14.90;99.90
13794;DHT22;31160;49.500;7.772;2022-10-16T03:24:19;14.90;99.90
13794;DHT22;31160;49.500;7.772;2022-10-16T03:26:45;14.90;99.90
13794;DHT22;31160;49.500;7.772;2022-10-16T03:29:12;14.90;99.90
13794;DHT22;31160;49.500;7.772;2022-10-16T03:31:39;14.90;99.90
13794;DHT22;31160;49.500;7.772;2022-10-16T03:34:06;15.00;99.90
13794;DHT22;31160;49.500;7.772;2022-10-16T03:36:33;15.00;99.90
13794;DHT22;31160;49.500;7.772;2022-10-16T03:38:59;15.00;99.90
13794;DHT22;31160;49.500;7.772;2022-10-16T03:41:26;15.00;99.90
13794;DHT22;31160;49.500;7.772;2022-10-16T03:43:53;14.90;99.90
13794;DHT22;31160;49.500;7.772;2022-10-16T03:46:19;14.90;99.90
13794;DHT22;31160;49.500;7.772;2022-10-16T03:48:46;14.90;99.90
13794;DHT22;31160;49.500;7.772;2022-10-16T03:51:13;14.90;99.90
13794;DHT22;31160;49.500;7.772;2022-10-16T03:53:39;15.00;99.90
13794;DHT22;31160;49.500;7.772;2022-10-16T03:56:06;14.90;99.90
13794;DHT22;31160;49.500;7.772;2022-10-16T03:58:33;15.00;99.90
13794;DHT22;31160;49.500;7.772;2022-10-16T04:01:00;15.00;99.90
13794;DHT22;31160;49.500;7.772;2022-10-16T04:03:26;15.00;99.90
13794;DHT22;31160;49.500;7.772;2022-10-16T04:05:53;14.90;99.90
13794;DHT22;31160;49.500;7.772;2022-10-16T04:08:20;15.00;99.90
13794;DHT22;31160;49.500;7.772;2022-10-16T04:10:47;15.00;99.90
13794;DHT22;31160;49.500;7.772;2022-10-16T04:13:14;15.00;99.90
13794;DHT22;31160;49.500;7.772;2022-10-16T04:15:40;15.00;99.90
13794;DHT22;31160;49.500;7.772;2022-10-16T04:18:07;15.00;99.90
13794;DHT22;31160;49.500;7.772;2022-10-16T04:20:34;15.10;99.90
13794;DHT22;31160;49.500;7.772;2022-10-16T04:23:01;15.00;99.90
13794;DHT22;31160;49.500;7.772;2022-10-16T04:25:27;15.00;99.90
13794;DHT22;31160;49.500;7.772;2022-10-16T04:27:54;15.00;99.90
13794;DHT22;31160;49.500;7.772;2022-10-16T04:30:22;15.00;99.90
13794;DHT22;31160;49.500;7.772;2022-10-16T04:32:50;15.20;99.90
13794;DHT22;31160;49.500;7.772;2022-10-16T04:35:18;15.10;99.90
13794;DHT22;31160;49.500;7.772;2022-10-16T04:37:45;15.00;99.90
13794;DHT22;31160;49.500;7.772;2022-10-16T04:40:13;15.00;99.90
13794;DHT22;31160;49.500;7.772;2022-10-16T04:42:40;15.00;99.90
13794;DHT22;31160;49.500;7.772;2022-10-16T04:45:07;15.00;99.90
13794;DHT22;31160;49.500;7.772;2022-10-16T04:47:40;15.00;99.90
13794;DHT22;31160;49.500;7.772;2022-10-16T04:50:07;14.90;99.90
13794;DHT22;31160;49.500;7.772;2022-10-16T04:52:34;14.90;99.90
13794;DHT22;31160;49.500;7.772;2022-10-16T04:55:07;14.90;99.90
13794;DHT22;31160;49.500;7.772;2022-10-16T04:57:34;14.80;99.90
13794;DHT22;31160;49.500;7.772;2022-10-16T05:00:00;14.80;99.90
13794;DHT22;31160;49.500;7.772;2022-10-16T05:02:27;14.80;99.90
13794;DHT22;31160;49.500;7.772;2022-10-16T05:04:54;14.80;99.90
13794;DHT22;31160;49.500;7.772;2022-10-16T05:07:21;14.70;99.90
13794;DHT22;31160;49.500;7.772;2022-10-16T05:09:47;14.80;99.90
13794;DHT22;31160;49.500;7.772;2022-10-16T05:12:14;14.70;99.90
13794;DHT22;31160;49.500;7.772;2022-10-16T05:14:41;14.80;99.90
13794;DHT22;31160;49.500;7.772;2022-10-16T05:17:07;14.80;99.90
13794;DHT22;31160;49.500;7.772;2022-10-16T05:19:34;14.80;99.90
13794;DHT22;31160;49.500;7.772;2022-10-16T05:22:01;14.80;99.90
13794;DHT22;31160;49.500;7.772;2022-10-16T05:24:28;14.80;99.90
13794;DHT22;31160;49.500;7.772;2022-10-16T05:26:54;14.80;99.90
13794;DHT22;31160;49.500;7.772;2022-10-16T05:29:21;14.80;99.90
13794;DHT22;31160;49.500;7.772;2022-10-16T05:31:52;14.80;99.90
13794;DHT22;31160;49.500;7.772;2022-10-16T05:34:20;14.80;99.90
13794;DHT22;31160;49.500;7.772;2022-10-16T05:36:47;14.80;99.90
13794;DHT22;31160;49.500;7.772;2022-10-16T05:39:15;14.70;99.90
13794;DHT22;31160;49.500;7.772;2022-10-16T05:41:42;14.90;99.90
13794;DHT22;31160;49.500;7.772;2022-10-16T05:44:09;14.90;99.90
13794;DHT22;31160;49.500;7.772;2022-10-16T05:46:36;14.90;99.90
13794;DHT22;31160;49.500;7.772;2022-10-16T05:49:03;14.90;99.90
13794;DHT22;31160;49.500;7.772;2022-10-16T05:51:30;14.90;99.90
13794;DHT22;31160;49.500;7.772;2022-10-16T05:53:56;14.80;99.90
13794;DHT22;31160;49.500;7.772;2022-10-16T05:56:23;14.70;99.90
13794;DHT22;31160;49.500;7.772;2022-10-16T05:58:50;14.70;99.90
13794;DHT22;31160;49.500;7.772;2022-10-16T06:01:18;14.80;99.90
13794;DHT22;31160;49.500;7.772;2022-10-16T06:03:45;14.90;99.90
13794;DHT22;31160;49.500;7.772;2022-10-16T06:06:15;14.80;99.90
13794;DHT22;31160;49.500;7.772;2022-10-16T06:08:43;14.90;99.90
13794;DHT22;31160;49.500;7.772;2022-10-16T06:11:12;14.80;99.90
13794;DHT22;31160;49.500;7.772;2022-10-16T06:13:39;14.80;99.90
13794;DHT22;31160;49.500;7.772;2022-10-16T06:16:10;14.80;99.90
13794;DHT22;31160;49.500;7.772;2022-10-16T06:18:37;14.80;99.90
13794;DHT22;31160;49.500;7.772;2022-10-16T06:21:08;14.90;99.90
13794;DHT22;31160;49.500;7.772;2022-10-16T06:23:36;14.80;99.90
13794;DHT22;31160;49.500;7.772;2022-10-16T06:26:10;14.90;99.90
13794;DHT22;31160;49.500;7.772;2022-10-16T06:28:37;14.90;99.90
13794;DHT22;31160;49.500;7.772;2022-10-16T06:31:06;15.00;99.90
13794;DHT22;31160;49.500;7.772;2022-10-16T06:33:35;15.00;99.90
13794;DHT22;31160;49.500;7.772;2022-10-16T06:36:08;14.90;99.90
13794;DHT22;31160;49.500;7.772;2022-10-16T06:38:35;14.90;99.90
13794;DHT22;31160;49.500;7.772;2022-10-16T06:41:03;15.00;99.90
13794;DHT22;31160;49.500;7.772;2022-10-16T06:43:30;14.90;99.90
13794;DHT22;31160;49.500;7.772;2022-10-16T06:45:59;14.80;99.90
13794;DHT22;31160;49.500;7.772;2022-10-16T06:48:26;14.90;99.90
13794;DHT22;31160;49.500;7.772;2022-10-16T06:53:31;15.00;99.90
13794;DHT22;31160;49.500;7.772;2022-10-16T06:56:18;15.10;99.90
13794;DHT22;31160;49.500;7.772;2022-10-16T06:58:46;15.10;99.90
13794;DHT22;31160;49.500;7.772;2022-10-16T07:01:14;15.10;99.90
13794;DHT22;31160;49.500;7.772;2022-10-16T07:03:43;15.10;99.90
13794;DHT22;31160;49.500;7.772;2022-10-16T07:06:12;15.20;99.90
13794;DHT22;31160;49.500;7.772;2022-10-16T07:08:41;15.20;99.90
13794;DHT22;31160;49.500;7.772;2022-10-16T07:11:11;15.30;99.90
13794;DHT22;31160;49.500;7.772;2022-10-16T07:13:39;15.30;99.90
13794;DHT22;31160;49.500;7.772;2022-10-16T07:16:18;15.40;99.90
13794;DHT22;31160;49.500;7.772;2022-10-16T07:18:45;15.40;99.90
13794;DHT22;31160;49.500;7.772;2022-10-16T07:23:41;15.40;99.90
13794;DHT22;31160;49.500;7.772;2022-10-16T07:26:09;15.40;99.90
13794;DHT22;31160;49.500;7.772;2022-10-16T07:28:36;15.40;99.90
13794;DHT22;31160;49.500;7.772;2022-10-16T07:31:09;15.40;99.90
13794;DHT22;31160;49.500;7.772;2022-10-16T07:33:38;15.30;99.90
13794;DHT22;31160;49.500;7.772;2022-10-16T07:36:06;15.40;99.90
13794;DHT22;31160;49.500;7.772;2022-10-16T07:38:32;15.40;99.90
13794;DHT22;31160;49.500;7.772;2022-10-16T07:41:01;15.30;99.90
13794;DHT22;31160;49.500;7.772;2022-10-16T07:43:28;15.20;99.90
13794;DHT22;31160;49.500;7.772;2022-10-16T07:45:55;15.20;99.90
13794;DHT22;31160;49.500;7.772;2022-10-16T07:48:31;15.20;99.90
13794;DHT22;31160;49.500;7.772;2022-10-16T07:50:59;15.00;99.90
13794;DHT22;31160;49.500;7.772;2022-10-16T07:53:26;15.20;99.90
13794;DHT22;31160;49.500;7.772;2022-10-16T07:56:00;15.10;99.90
13794;DHT22;31160;49.500;7.772;2022-10-16T07:58:28;15.10;99.90
13794;DHT22;31160;49.500;7.772;2022-10-16T08:00:55;15.10;99.90
13794;DHT22;31160;49.500;7.772;2022-10-16T08:03:23;14.90;99.90
13794;DHT22;31160;49.500;7.772;2022-10-16T08:05:50;14.90;99.90
13794;DHT22;31160;49.500;7.772;2022-10-16T08:08:18;14.80;99.90
13794;DHT22;31160;49.500;7.772;2022-10-16T08:10:45;14.80;99.90
13794;DHT22;31160;49.500;7.772;2022-10-16T08:13:12;14.80;99.90
13794;DHT22;31160;49.500;7.772;2022-10-16T08:15:42;14.90;99.90
13794;DHT22;31160;49.500;7.772;2022-10-16T08:18:10;15.00;99.90
13794;DHT22;31160;49.500;7.772;2022-10-16T08:20:37;15.10;99.90
13794;DHT22;31160;49.500;7.772;2022-10-16T08:23:03;15.20;99.90
13794;DHT22;31160;49.500;7.772;2022-10-16T08:25:30;15.30;99.90
13794;DHT22;31160;49.500;7.772;2022-10-16T08:27:57;15.40;99.90
13794;DHT22;31160;49.500;7.772;2022-10-16T08:30:24;15.50;99.90
13794;DHT22;31160;49.500;7.772;2022-10-16T08:32:51;15.60;99.90
13794;DHT22;31160;49.500;7.772;2022-10-16T08:35:18;15.70;99.90
13794;DHT22;31160;49.500;7.772;2022-10-16T08:37:44;15.80;99.90
13794;DHT22;31160;49.500;7.772;2022-10-16T08:40:24;15.90;99.90
13794;DHT22;31160;49.500;7.772;2022-10-16T08:48:18;16.10;99.90
13794;DHT22;31160;49.500;7.772;2022-10-16T08:50:47;16.20;99.90
13794;DHT22;31160;49.500;7.772;2022-10-16T08:53:46;16.30;99.90
13794;DHT22;31160;49.500;7.772;2022-10-16T08:56:15;16.50;99.90
13794;DHT22;31160;49.500;7.772;2022-10-16T08:58:45;16.60;99.90
13794;DHT22;31160;49.500;7.772;2022-10-16T09:01:16;16.70;99.90
13794;DHT22;31160;49.500;7.772;2022-10-16T09:12:19;17.40;99.90
13794;DHT22;31160;49.500;7.772;2022-10-16T09:20:42;17.90;99.90
13794;DHT22;31160;49.500;7.772;2022-10-16T09:23:21;17.60;99.90
13794;DHT22;31160;49.500;7.772;2022-10-16T09:25:49;17.80;99.90
13794;DHT22;31160;49.500;7.772;2022-10-16T09:28:18;18.00;99.90
13794;DHT22;31160;49.500;7.772;2022-10-16T09:30:45;18.30;99.90
13794;DHT22;31160;49.500;7.772;2022-10-16T09:33:13;18.50;99.90
13794;DHT22;31160;49.500;7.772;2022-10-16T09:35:44;18.80;99.90
13794;DHT22;31160;49.500;7.772;2022-10-16T09:38:41;18.50;99.90
13794;DHT22;31160;49.500;7.772;2022-10-16T09:41:19;18.50;99.90
13794;DHT22;31160;49.500;7.772;2022-10-16T09:43:56;18.40;99.90
13794;DHT22;31160;49.500;7.772;2022-10-16T09:46:36;18.40;99.90
13794;DHT22;31160;49.500;7.772;2022-10-16T09:49:18;18.40;99.90
13794;DHT22;31160;49.500;7.772;2022-10-16T09:51:45;18.60;99.90
13794;DHT22;31160;49.500;7.772;2022-10-16T09:54:20;18.80;99.90
13794;DHT22;31160;49.500;7.772;2022-10-16T09:56:48;18.80;99.90
13794;DHT22;31160;49.500;7.772;2022-10-16T09:59:21;18.70;99.90
13794;DHT22;31160;49.500;7.772;2022-10-16T10:01:52;18.50;99.90
13794;DHT22;31160;49.500;7.772;2022-10-16T10:04:20;18.30;99.90
13794;DHT22;31160;49.500;7.772;2022-10-16T10:09:19;18.30;99.90
13794;DHT22;31160;49.500;7.772;2022-10-16T10:11:56;18.20;99.90
13794;DHT22;31160;49.500;7.772;2022-10-16T10:17:11;18.30;99.90
13794;DHT22;31160;49.500;7.772;2022-10-16T10:22:21;18.50;99.90
13794;DHT22;31160;49.500;7.772;2022-10-16T10:30:18;18.70;99.90
13794;DHT22;31160;49.500;7.772;2022-10-16T10:33:20;18.80;99.90
13794;DHT22;31160;49.500;7.772;2022-10-16T10:36:10;19.10;99.90
13794;DHT22;31160;49.500;7.772;2022-10-16T10:38:54;19.10;99.90
13794;DHT22;31160;49.500;7.772;2022-10-16T10:49:49;19.00;99.90
13794;DHT22;31160;49.500;7.772;2022-10-16T10:52:41;18.50;99.90
13794;DHT22;31160;49.500;7.772;2022-10-16T10:55:12;18.60;99.90
13794;DHT22;31160;49.500;7.772;2022-10-16T10:58:07;18.60;99.90
13794;DHT22;31160;49.500;7.772;2022-10-16T11:01:07;18.60;99.90
13794;DHT22;31160;49.500;7.772;2022-10-16T11:06:46;18.40;99.90
13794;DHT22;31160;49.500;7.772;2022-10-16T11:09:22;18.60;99.90
13794;DHT22;31160;49.500;7.772;2022-10-16T11:11:58;18.80;99.90
13794;DHT22;31160;49.500;7.772;2022-10-16T11:14:30;19.20;99.90
13794;DHT22;31160;49.500;7.772;2022-10-16T11:17:11;19.40;99.90
13794;DHT22;31160;49.500;7.772;2022-10-16T11:22:38;19.50;99.90
13794;DHT22;31160;49.500;7.772;2022-10-16T11:28:10;19.70;99.90
13794;DHT22;31160;49.500;7.772;2022-10-16T11:30:49;19.80;99.90
13794;DHT22;31160;49.500;7.772;2022-10-16T11:35:55;19.70;99.90
13794;DHT22;31160;49.500;7.772;2022-10-16T11:38:51;19.80;99.90
13794;DHT22;31160;49.500;7.772;2022-10-16T11:41:32;20.20;99.90
13794;DHT22;31160;49.500;7.772;2022-10-16T11:44:35;20.40;99.90
13794;DHT22;31160;49.500;7.772;2022-10-16T11:55:24;20.60;99.90
13794;DHT22;31160;49.500;7.772;2022-10-16T11:57:58;20.50;99.90
13794;DHT22;31160;49.500;7.772;2022-10-16T12:09:22;20.30;99.90
13794;DHT22;31160;49.500;7.772;2022-10-16T12:11:51;19.80;99.90
13794;DHT22;31160;49.500;7.772;2022-10-16T12:16:58;20.00;99.90
13794;DHT22;31160;49.500;7.772;2022-10-16T12:19:30;20.30;99.90
13794;DHT22;31160;49.500;7.772;2022-10-16T12:21:59;20.30;99.90
13794;DHT22;31160;49.500;7.772;2022-10-16T12:24:35;20.10;99.90
13794;DHT22;31160;49.500;7.772;2022-10-16T12:27:06;20.00;99.90
13794;DHT22;31160;49.500;7.772;2022-10-16T12:29:46;20.10;99.90
13794;DHT22;31160;49.500;7.772;2022-10-16T12:35:22;20.10;99.90
13794;DHT22;31160;49.500;7.772;2022-10-16T12:37:50;20.40;99.90
13794;DHT22;31160;49.500;7.772;2022-10-16T12:40:29;20.30;99.90
13794;DHT22;31160;49.500;7.772;2022-10-16T12:42:57;20.30;99.90
13794;DHT22;31160;49.500;7.772;2022-10-16T12:45:25;20.40;99.90
13794;DHT22;31160;49.500;7.772;2022-10-16T12:47:54;20.30;99.90
13794;DHT22;31160;49.500;7.772;2022-10-16T12:50:36;20.30;99.90
13794;DHT22;31160;49.500;7.772;2022-10-16T12:53:20;20.50;99.90
13794;DHT22;31160;49.500;7.772;2022-10-16T12:56:04;20.40;99.90
13794;DHT22;31160;49.500;7.772;2022-10-16T13:09:52;20.50;99.90
13794;DHT22;31160;49.500;7.772;2022-10-16T13:20:59;21.00;99.90
13794;DHT22;31160;49.500;7.772;2022-10-16T13:26:01;21.00;99.90
13794;DHT22;31160;49.500;7.772;2022-10-16T13:28:33;21.00;99.90
13794;DHT22;31160;49.500;7.772;2022-10-16T13:31:02;20.80;99.90
13794;DHT22;31160;49.500;7.772;2022-10-16T13:33:37;20.90;99.90
13794;DHT22;31160;49.500;7.772;2022-10-16T13:36:04;20.90;99.90
13794;DHT22;31160;49.500;7.772;2022-10-16T13:38:33;20.90;99.90
13794;DHT22;31160;49.500;7.772;2022-10-16T13:41:06;20.90;99.90
13794;DHT22;31160;49.500;7.772;2022-10-16T13:46:22;20.80;99.90
13794;DHT22;31160;49.500;7.772;2022-10-16T13:49:12;20.70;99.90
13794;DHT22;31160;49.500;7.772;2022-10-16T13:51:39;20.70;99.90
13794;DHT22;31160;49.500;7.772;2022-10-16T13:54:09;20.70;99.90
13794;DHT22;31160;49.500;7.772;2022-10-16T13:56:39;20.70;99.90
13794;DHT22;31160;49.500;7.772;2022-10-16T13:59:23;20.60;99.90
13794;DHT22;31160;49.500;7.772;2022-10-16T14:01:52;20.70;99.90
13794;DHT22;31160;49.500;7.772;2022-10-16T14:04:21;20.50;99.90
13794;DHT22;31160;49.500;7.772;2022-10-16T14:06:50;20.20;99.90
13794;DHT22;31160;49.500;7.772;2022-10-16T14:09:24;20.40;99.90
13794;DHT22;31160;49.500;7.772;2022-10-16T14:12:10;20.40;99.90
13794;DHT22;31160;49.500;7.772;2022-10-16T14:14:51;20.50;99.90
13794;DHT22;31160;49.500;7.772;2022-10-16T14:17:29;20.60;99.90
13794;DHT22;31160;49.500;7.772;2022-10-16T14:19:58;20.70;99.90
13794;DHT22;31160;49.500;7.772;2022-10-16T14:25:24;20.70;99.90
13794;DHT22;31160;49.500;7.772;2022-10-16T14:30:36;20.60;99.90
13794;DHT22;31160;49.500;7.772;2022-10-16T14:33:20;20.40;99.90
13794;DHT22;31160;49.500;7.772;2022-10-16T14:36:12;20.40;99.90
13794;DHT22;31160;49.500;7.772;2022-10-16T14:38:41;20.50;99.90
13794;DHT22;31160;49.500;7.772;2022-10-16T14:41:09;20.50;99.90
13794;DHT22;31160;49.500;7.772;2022-10-16T14:43:43;20.30;99.90
13794;DHT22;31160;49.500;7.772;2022-10-16T14:46:21;20.40;99.90
13794;DHT22;31160;49.500;7.772;2022-10-16T14:49:00;20.40;99.90
13794;DHT22;31160;49.500;7.772;2022-10-16T14:51:27;20.30;99.90
13794;DHT22;31160;49.500;7.772;2022-10-16T14:53:54;20.30;99.90
13794;DHT22;31160;49.500;7.772;2022-10-16T14:56:30;20.40;99.90
13794;DHT22;31160;49.500;7.772;2022-10-16T14:58:59;20.40;99.90
13794;DHT22;31160;49.500;7.772;2022-10-16T15:01:26;20.40;99.90
13794;DHT22;31160;49.500;7.772;2022-10-16T15:03:53;20.30;99.90
13794;DHT22;31160;49.500;7.772;2022-10-16T15:06:21;20.30;99.90
13794;DHT22;31160;49.500;7.772;2022-10-16T15:08:48;20.20;99.90
13794;DHT22;31160;49.500;7.772;2022-10-16T15:11:17;20.10;99.90
13794;DHT22;31160;49.500;7.772;2022-10-16T15:13:45;19.90;99.90
13794;DHT22;31160;49.500;7.772;2022-10-16T15:16:14;20.00;99.90
13794;DHT22;31160;49.500;7.772;2022-10-16T15:18:42;20.00;99.90
13794;DHT22;31160;49.500;7.772;2022-10-16T15:21:26;19.90;99.90
13794;DHT22;31160;49.500;7.772;2022-10-16T15:23:53;19.80;99.90
13794;DHT22;31160;49.500;7.772;2022-10-16T15:26:20;19.70;99.90
13794;DHT22;31160;49.500;7.772;2022-10-16T15:28:47;19.40;99.90
13794;DHT22;31160;49.500;7.772;2022-10-16T15:31:14;19.50;99.90
13794;DHT22;31160;49.500;7.772;2022-10-16T15:33:41;19.40;99.90
13794;DHT22;31160;49.500;7.772;2022-10-16T15:36:07;19.30;99.90
13794;DHT22;31160;49.500;7.772;2022-10-16T15:38:34;19.30;99.90
13794;DHT22;31160;49.500;7.772;2022-10-16T15:41:01;19.30;99.90
13794;DHT22;31160;49.500;7.772;2022-10-16T15:43:28;19.40;99.90
13794;DHT22;31160;49.500;7.772;2022-10-16T15:46:00;19.30;99.90
13794;DHT22;31160;49.500;7.772;2022-10-16T15:48:28;19.30;99.90
13794;DHT22;31160;49.500;7.772;2022-10-16T15:50:55;19.40;99.90
13794;DHT22;31160;49.500;7.772;2022-10-16T15:53:22;19.40;99.90
13794;DHT22;31160;49.500;7.772;2022-10-16T15:55:49;19.30;99.90
13794;DHT22;31160;49.500;7.772;2022-10-16T15:58:15;19.20;99.90
13794;DHT22;31160;49.500;7.772;2022-10-16T16:00:43;19.20;99.90
13794;DHT22;31160;49.500;7.772;2022-10-16T16:03:10;19.10;99.90
13794;DHT22;31160;49.500;7.772;2022-10-16T16:05:38;19.00;99.90
13794;DHT22;31160;49.500;7.772;2022-10-16T16:08:11;18.90;99.90
13794;DHT22;31160;49.500;7.772;2022-10-16T16:10:38;18.90;99.90
13794;DHT22;31160;49.500;7.772;2022-10-16T16:13:05;18.80;99.90
13794;DHT22;31160;49.500;7.772;2022-10-16T16:15:31;18.70;99.90
13794;DHT22;31160;49.500;7.772;2022-10-16T16:17:58;18.60;99.90
13794;DHT22;31160;49.500;7.772;2022-10-16T16:20:25;18.50;99.90
13794;DHT22;31160;49.500;7.772;2022-10-16T16:22:52;18.50;99.90
13794;DHT22;31160;49.500;7.772;2022-10-16T16:25:18;18.40;99.90
13794;DHT22;31160;49.500;7.772;2022-10-16T16:27:45;18.30;99.90
13794;DHT22;31160;49.500;7.772;2022-10-16T16:30:12;18.20;99.90
13794;DHT22;31160;49.500;7.772;2022-10-16T16:32:45;18.20;99.90
13794;DHT22;31160;49.500;7.772;2022-10-16T16:35:12;18.00;99.90
13794;DHT22;31160;49.500;7.772;2022-10-16T16:37:39;17.90;99.90
13794;DHT22;31160;49.500;7.772;2022-10-16T16:40:05;17.80;99.90
13794;DHT22;31160;49.500;7.772;2022-10-16T16:42:32;17.70;99.90
13794;DHT22;31160;49.500;7.772;2022-10-16T16:44:59;17.50;99.90
13794;DHT22;31160;49.500;7.772;2022-10-16T16:47:25;17.50;99.90
13794;DHT22;31160;49.500;7.772;2022-10-16T16:49:52;17.40;99.90
13794;DHT22;31160;49.500;7.772;2022-10-16T16:52:19;17.40;99.90
13794;DHT22;31160;49.500;7.772;2022-10-16T16:54:47;17.30;99.90
13794;DHT22;31160;49.500;7.772;2022-10-16T16:57:19;17.30;99.90
13794;DHT22;31160;49.500;7.772;2022-10-16T16:59:46;17.20;99.90
13794;DHT22;31160;49.500;7.772;2022-10-16T17:02:13;17.20;99.90
13794;DHT22;31160;49.500;7.772;2022-10-16T17:04:40;17.10;99.90
13794;DHT22;31160;49.500;7.772;2022-10-16T17:07:07;16.90;99.90
13794;DHT22;31160;49.500;7.772;2022-10-16T17:09:34;16.90;99.90
13794;DHT22;31160;49.500;7.772;2022-10-16T17:12:01;16.80;99.90
13794;DHT22;31160;49.500;7.772;2022-10-16T17:14:27;16.70;99.90
13794;DHT22;31160;49.500;7.772;2022-10-16T17:16:54;16.70;99.90
13794;DHT22;31160;49.500;7.772;2022-10-16T17:19:21;16.60;99.90
13794;DHT22;31160;49.500;7.772;2022-10-16T17:21:49;16.60;99.90
13794;DHT22;31160;49.500;7.772;2022-10-16T17:24:16;16.50;99.90
13794;DHT22;31160;49.500;7.772;2022-10-16T17:26:43;16.30;99.90
13794;DHT22;31160;49.500;7.772;2022-10-16T17:29:15;16.40;99.90
13794;DHT22;31160;49.500;7.772;2022-10-16T17:31:44;16.40;99.90
13794;DHT22;31160;49.500;7.772;2022-10-16T17:34:11;16.40;99.90
13794;DHT22;31160;49.500;7.772;2022-10-16T17:36:39;16.40;99.90
13794;DHT22;31160;49.500;7.772;2022-10-16T17:39:11;16.40;99.90
13794;DHT22;31160;49.500;7.772;2022-10-16T17:41:38;16.20;99.90
13794;DHT22;31160;49.500;7.772;2022-10-16T17:44:06;16.20;99.90
13794;DHT22;31160;49.500;7.772;2022-10-16T17:46:33;16.10;99.90
13794;DHT22;31160;49.500;7.772;2022-10-16T17:49:06;16.00;99.90
13794;DHT22;31160;49.500;7.772;2022-10-16T17:51:33;15.90;99.90
13794;DHT22;31160;49.500;7.772;2022-10-16T17:54:00;15.90;99.90